createdAt,value
2019-03-18T00:00:43.974Z,58.70
2019-03-18T00:03:13.667Z,58.80
2019-03-18T00:05:43.281Z,58.90
2019-03-18T00:08:12.894Z,59.40
2019-03-18T00:10:42.590Z,59.30
2019-03-18T00:13:12.266Z,59.70
2019-03-18T00:15:41.891Z,59.90
2019-03-18T00:18:11.578Z,59.70
2019-03-18T00:20:41.274Z,59.50
2019-03-18T00:23:10.887Z,60.70
2019-03-18T00:25:40.519Z,60.60
2019-03-18T00:28:10.576Z,62.30
2019-03-18T00:30:40.210Z,62.60
2019-03-18T00:33:09.830Z,62.40
2019-03-18T00:35:39.494Z,62.90
2019-03-18T00:38:09.108Z,63.30
2019-03-18T00:40:38.742Z,63.90
2019-03-18T00:43:08.434Z,66.20
2019-03-18T00:45:40.221Z,67.60
2019-03-18T00:48:09.495Z,70.10
2019-03-18T00:50:39.124Z,71.40
2019-03-18T00:53:08.786Z,73.90
2019-03-18T00:55:38.387Z,72.10
2019-03-18T00:58:08.027Z,70.10
2019-03-18T01:00:37.772Z,72.90
2019-03-18T01:03:07.390Z,74.60
2019-03-18T01:05:37.133Z,79.80
2019-03-18T01:08:06.754Z,85.20
2019-03-18T01:10:36.489Z,89.70
2019-03-18T01:13:06.222Z,91.10
2019-03-18T01:15:35.860Z,92.60
2019-03-18T01:18:05.483Z,94.00
2019-03-18T01:20:35.250Z,92.70
2019-03-18T01:23:04.976Z,93.90
2019-03-18T01:25:34.684Z,93.00
2019-03-18T01:28:04.356Z,94.30
2019-03-18T01:30:33.943Z,94.30
2019-03-18T01:33:03.570Z,96.00
2019-03-18T01:35:33.199Z,98.70
2019-03-18T01:38:02.826Z,99.30
2019-03-18T01:40:32.471Z,98.30
2019-03-18T01:43:02.139Z,99.20
2019-03-18T01:45:40.572Z,99.90
2019-03-18T01:48:03.054Z,99.90
2019-03-18T01:50:32.690Z,99.90
2019-03-18T01:53:02.407Z,99.90
2019-03-18T01:55:32.003Z,99.90
2019-03-18T01:58:01.650Z,99.90
2019-03-18T02:00:31.676Z,99.90
2019-03-18T02:03:01.281Z,99.90
2019-03-18T02:05:31.044Z,99.90
2019-03-18T02:08:01.009Z,99.90
2019-03-18T02:10:30.779Z,99.90
2019-03-18T02:13:00.478Z,99.90
2019-03-18T02:15:30.119Z,99.90
2019-03-18T02:18:00.243Z,99.90
2019-03-18T02:20:30.090Z,99.90
2019-03-18T02:22:59.703Z,99.90
2019-03-18T02:25:29.347Z,99.90
2019-03-18T02:27:59.093Z,99.90
2019-03-18T02:30:28.778Z,99.90
2019-03-18T02:32:58.393Z,99.90
2019-03-18T02:35:28.047Z,99.90
2019-03-18T02:37:57.643Z,99.90
2019-03-18T02:40:27.243Z,99.90
2019-03-18T02:42:57.231Z,99.90
2019-03-18T02:45:26.862Z,99.90
2019-03-18T02:47:56.504Z,99.90
2019-03-18T02:50:26.133Z,99.90
2019-03-18T02:52:55.810Z,99.90
2019-03-18T02:55:25.434Z,99.90
2019-03-18T02:57:55.051Z,99.90
2019-03-18T03:00:24.750Z,99.90
2019-03-18T03:02:54.327Z,99.90
2019-03-18T03:05:24.003Z,99.90
2019-03-18T03:07:53.707Z,99.90
2019-03-18T03:10:23.360Z,99.90
2019-03-18T03:12:53.103Z,99.90
2019-03-18T03:15:22.806Z,99.90
2019-03-18T03:17:52.482Z,99.90
2019-03-18T03:20:22.101Z,99.90
2019-03-18T03:22:51.716Z,99.90
2019-03-18T03:25:24.653Z,99.90
2019-03-18T03:27:52.749Z,99.90
2019-03-18T03:30:22.701Z,99.90
2019-03-18T03:32:52.468Z,99.90
2019-03-18T03:35:22.432Z,99.90
2019-03-18T03:37:52.059Z,99.90
2019-03-18T03:40:21.815Z,99.90
2019-03-18T03:42:51.446Z,99.90
2019-03-18T03:45:21.114Z,99.90
2019-03-18T03:47:50.758Z,99.90
2019-03-18T03:50:20.443Z,99.90
2019-03-18T03:52:50.167Z,99.90
2019-03-18T03:55:19.808Z,99.90
2019-03-18T03:57:49.655Z,99.90
2019-03-18T04:00:19.325Z,99.90
2019-03-18T04:02:48.944Z,99.90
2019-03-18T04:05:18.781Z,99.90
2019-03-18T04:07:51.530Z,99.90
2019-03-18T04:10:21.163Z,99.90
2019-03-18T04:12:50.843Z,99.90
2019-03-18T04:15:20.659Z,99.90
2019-03-18T04:17:50.314Z,99.90
2019-03-18T04:20:20.044Z,99.90
2019-03-18T04:22:49.732Z,99.90
2019-03-18T04:25:19.451Z,99.90
2019-03-18T04:27:49.196Z,99.90
2019-03-18T04:30:18.807Z,99.90
2019-03-18T04:32:48.448Z,99.90
2019-03-18T04:35:18.102Z,99.90
2019-03-18T04:37:47.739Z,99.90
2019-03-18T04:40:17.437Z,99.90
2019-03-18T04:42:47.030Z,99.90
2019-03-18T04:45:16.686Z,99.90
2019-03-18T04:47:46.344Z,99.90
2019-03-18T04:50:16.150Z,99.90
2019-03-18T04:52:45.880Z,99.90
2019-03-18T04:55:15.519Z,99.90
2019-03-18T04:57:45.160Z,99.90
2019-03-18T05:00:14.983Z,99.90
2019-03-18T05:02:44.611Z,99.90
2019-03-18T05:05:14.267Z,99.90
2019-03-18T05:07:43.865Z,99.90
2019-03-18T05:10:14.610Z,99.90
2019-03-18T05:12:44.263Z,99.90
2019-03-18T05:15:13.901Z,99.90
2019-03-18T05:17:43.625Z,99.90
2019-03-18T05:20:13.263Z,99.90
2019-03-18T05:22:42.896Z,99.90
2019-03-18T05:25:12.591Z,99.90
2019-03-18T05:27:42.235Z,99.90
2019-03-18T05:30:11.997Z,99.90
2019-03-18T05:32:41.648Z,99.90
2019-03-18T05:35:11.407Z,99.90
2019-03-18T05:37:41.063Z,99.90
2019-03-18T05:40:10.886Z,99.90
2019-03-18T05:42:40.556Z,99.90
2019-03-18T05:45:10.461Z,99.90
2019-03-18T05:47:40.306Z,99.90
2019-03-18T05:50:10.100Z,99.90
2019-03-18T05:52:39.707Z,99.90
2019-03-18T05:55:10.525Z,99.90
2019-03-18T05:57:40.427Z,99.90
2019-03-18T06:00:10.187Z,99.90
2019-03-18T06:02:40.008Z,99.90
2019-03-18T06:05:10.369Z,99.90
2019-03-18T06:07:39.955Z,99.90
2019-03-18T06:10:10.140Z,99.90
2019-03-18T06:12:39.829Z,99.90
2019-03-18T06:15:09.711Z,99.90
2019-03-18T06:17:51.243Z,99.90
2019-03-18T06:20:11.451Z,99.90
2019-03-18T06:22:41.115Z,99.90
2019-03-18T06:25:10.775Z,99.90
2019-03-18T06:27:40.482Z,99.90
2019-03-18T06:30:10.857Z,99.90
2019-03-18T06:32:40.559Z,99.90
2019-03-18T06:35:10.449Z,99.90
2019-03-18T06:37:40.068Z,99.90
2019-03-18T06:40:10.028Z,99.90
2019-03-18T06:42:39.709Z,99.90
2019-03-18T06:45:10.035Z,99.90
2019-03-18T06:47:39.697Z,99.90
2019-03-18T06:50:09.401Z,99.90
2019-03-18T06:52:38.999Z,99.90
2019-03-18T06:55:08.758Z,99.90
2019-03-18T06:57:38.464Z,99.90
2019-03-18T07:00:09.229Z,99.90
2019-03-18T07:02:38.925Z,99.90
2019-03-18T07:05:09.189Z,99.90
2019-03-18T07:07:38.943Z,99.90
2019-03-18T07:10:09.290Z,99.90
2019-03-18T07:12:38.899Z,99.90
2019-03-18T07:15:08.508Z,99.90
2019-03-18T07:17:38.214Z,99.90
2019-03-18T07:20:08.744Z,99.90
2019-03-18T07:22:38.372Z,99.90
2019-03-18T07:25:09.143Z,99.90
2019-03-18T07:27:38.814Z,99.90
2019-03-18T07:30:09.023Z,99.90
2019-03-18T07:32:38.723Z,99.90
2019-03-18T07:35:08.359Z,99.90
2019-03-18T07:37:37.984Z,99.90
2019-03-18T07:40:11.079Z,99.90
2019-03-18T07:42:39.921Z,99.90
2019-03-18T07:45:10.213Z,99.90
2019-03-18T07:47:39.843Z,99.90
2019-03-18T07:50:09.992Z,99.90
2019-03-18T07:52:39.626Z,99.90
2019-03-18T07:55:09.387Z,99.90
2019-03-18T07:57:39.140Z,99.90
2019-03-18T08:00:09.839Z,99.90
2019-03-18T08:02:39.509Z,99.90
2019-03-18T08:05:09.780Z,99.90
2019-03-18T08:07:39.500Z,99.90
2019-03-18T08:10:09.303Z,99.90
2019-03-18T08:12:39.015Z,99.90
2019-03-18T08:15:08.905Z,99.90
2019-03-18T08:17:38.582Z,99.90
2019-03-18T08:20:08.401Z,99.90
2019-03-18T08:22:38.118Z,99.90
2019-03-18T08:25:07.914Z,99.90
2019-03-18T08:27:37.568Z,99.90
2019-03-18T08:30:07.885Z,99.90
2019-03-18T08:32:37.624Z,99.90
2019-03-18T08:35:07.442Z,99.90
2019-03-18T08:37:37.147Z,99.90
2019-03-18T08:40:07.498Z,99.90
2019-03-18T08:42:37.193Z,99.90
2019-03-18T08:45:07.446Z,99.90
2019-03-18T08:47:37.098Z,99.90
2019-03-18T08:50:07.121Z,99.90
2019-03-18T08:52:36.758Z,99.90
2019-03-18T08:55:06.456Z,99.90
2019-03-18T08:57:36.140Z,99.90
2019-03-18T09:00:06.997Z,99.90
2019-03-18T09:02:37.216Z,99.90
2019-03-18T09:05:07.199Z,99.90
2019-03-18T09:07:36.806Z,99.90
2019-03-18T09:10:06.868Z,99.90
2019-03-18T09:12:36.602Z,99.90
2019-03-18T09:15:06.789Z,99.90
2019-03-18T09:17:36.449Z,99.90
2019-03-18T09:20:07.397Z,99.90
2019-03-18T09:22:37.054Z,99.90
2019-03-18T09:25:07.215Z,99.90
2019-03-18T09:27:36.916Z,99.90
2019-03-18T09:30:07.469Z,99.90
2019-03-18T09:32:37.131Z,99.90
2019-03-18T09:35:07.095Z,99.90
2019-03-18T09:37:37.662Z,99.90
2019-03-18T09:40:07.634Z,99.90
2019-03-18T09:42:37.380Z,99.90
2019-03-18T09:45:07.567Z,99.90
2019-03-18T09:47:37.287Z,99.90
2019-03-18T09:50:07.480Z,99.90
2019-03-18T09:52:37.122Z,99.90
2019-03-18T09:55:06.904Z,99.90
2019-03-18T09:57:36.542Z,99.90
2019-03-18T10:00:06.546Z,99.90
2019-03-18T10:02:36.207Z,99.90
2019-03-18T10:05:06.260Z,99.90
2019-03-18T10:07:35.919Z,99.90
2019-03-18T10:10:07.416Z,99.90
2019-03-18T10:12:37.070Z,99.90
2019-03-18T10:15:07.778Z,99.90
2019-03-18T10:17:37.419Z,99.90
2019-03-18T10:20:07.415Z,99.90
2019-03-18T10:22:37.096Z,99.90
2019-03-18T10:25:06.994Z,99.90
2019-03-18T10:27:37.929Z,99.90
2019-03-18T10:30:07.949Z,99.90
2019-03-18T10:32:37.710Z,99.90
2019-03-18T10:35:07.575Z,99.90
2019-03-18T10:37:37.237Z,99.90
2019-03-18T10:40:08.436Z,99.90
2019-03-18T10:42:38.470Z,99.90
2019-03-18T10:45:09.088Z,99.90
2019-03-18T10:47:38.871Z,99.90
2019-03-18T10:50:09.416Z,99.90
2019-03-18T10:52:39.097Z,99.90
2019-03-18T10:55:09.522Z,99.90
2019-03-18T10:57:39.128Z,99.90
2019-03-18T11:00:10.159Z,99.90
2019-03-18T11:02:39.835Z,99.90
2019-03-18T11:05:09.629Z,99.90
2019-03-18T11:07:39.241Z,99.90
2019-03-18T11:10:12.467Z,99.90
2019-03-18T11:12:42.061Z,99.90
2019-03-18T11:15:12.402Z,99.90
2019-03-18T11:17:42.044Z,99.90
2019-03-18T11:20:12.059Z,99.90
2019-03-18T11:22:41.676Z,99.90
2019-03-18T11:25:11.572Z,99.90
2019-03-18T11:27:41.294Z,99.90
2019-03-18T11:30:11.483Z,99.90
2019-03-18T11:32:41.173Z,99.90
2019-03-18T11:35:10.907Z,99.90
2019-03-18T11:37:40.550Z,99.90
2019-03-18T11:40:11.577Z,99.90
2019-03-18T11:42:41.208Z,99.90
2019-03-18T11:45:11.503Z,99.90
2019-03-18T11:47:41.151Z,99.90
2019-03-18T11:50:11.946Z,99.90
2019-03-18T11:52:41.810Z,99.90
2019-03-18T11:55:13.220Z,99.90
2019-03-18T11:57:42.899Z,99.90
2019-03-18T12:00:14.170Z,99.90
2019-03-18T12:02:43.818Z,99.90
2019-03-18T12:05:15.090Z,99.90
2019-03-18T12:07:44.725Z,99.90
2019-03-18T12:10:16.101Z,99.90
2019-03-18T12:12:45.756Z,99.90
2019-03-18T12:15:15.462Z,99.90
2019-03-18T12:17:45.138Z,99.90
2019-03-18T12:20:24.451Z,99.90
2019-03-18T12:22:46.188Z,99.90
2019-03-18T12:25:15.830Z,99.90
2019-03-18T12:27:45.582Z,99.90
2019-03-18T12:30:17.340Z,99.90
2019-03-18T12:32:47.077Z,99.90
2019-03-18T12:35:16.943Z,99.90
2019-03-18T12:37:46.632Z,99.90
2019-03-18T12:40:16.415Z,99.90
2019-03-18T12:42:46.556Z,99.90
2019-03-18T12:45:16.279Z,99.90
2019-03-18T12:47:45.911Z,99.90
2019-03-18T12:50:16.683Z,99.90
2019-03-18T12:52:46.594Z,99.90
2019-03-18T12:55:17.513Z,99.90
2019-03-18T12:57:47.239Z,99.90
2019-03-18T13:00:19.488Z,99.90
2019-03-18T13:02:49.138Z,99.90
2019-03-18T13:05:19.256Z,99.90
2019-03-18T13:07:48.883Z,99.90
2019-03-18T13:10:21.197Z,99.90
2019-03-18T13:12:49.818Z,99.90
2019-03-18T13:15:19.972Z,99.90
2019-03-18T13:17:49.618Z,99.90
2019-03-18T13:20:19.307Z,99.90
2019-03-18T13:22:48.934Z,99.90
2019-03-18T13:25:18.612Z,99.90
2019-03-18T13:27:48.221Z,99.90
2019-03-18T13:30:18.056Z,99.90
2019-03-18T13:32:47.837Z,99.90
2019-03-18T13:35:17.557Z,99.90
2019-03-18T13:37:47.172Z,99.90
2019-03-18T13:40:16.898Z,99.90
2019-03-18T13:42:46.530Z,99.90
2019-03-18T13:45:16.293Z,99.90
2019-03-18T13:47:46.186Z,99.90
2019-03-18T13:50:16.994Z,99.90
2019-03-18T13:52:46.612Z,99.90
2019-03-18T13:55:16.402Z,99.90
2019-03-18T13:57:46.054Z,99.90
2019-03-18T14:00:16.266Z,99.90
2019-03-18T14:02:46.042Z,99.90
2019-03-18T14:05:15.832Z,99.90
2019-03-18T14:07:58.908Z,99.90
2019-03-18T14:10:17.274Z,99.90
2019-03-18T14:12:46.868Z,99.90
2019-03-18T14:15:16.808Z,99.90
2019-03-18T14:17:46.460Z,99.90
2019-03-18T14:20:16.509Z,99.90
2019-03-18T14:22:46.340Z,99.90
2019-03-18T14:25:15.453Z,99.90
2019-03-18T14:27:47.491Z,99.90
2019-03-18T14:30:17.446Z,99.90
2019-03-18T14:32:47.074Z,99.90
2019-03-18T14:35:16.839Z,99.90
2019-03-18T14:37:46.643Z,99.90
2019-03-18T14:40:16.325Z,99.90
2019-03-18T14:42:45.948Z,99.90
2019-03-18T14:45:17.335Z,99.90
2019-03-18T14:47:46.930Z,99.90
2019-03-18T14:50:17.531Z,99.90
2019-03-18T14:52:47.202Z,99.90
2019-03-18T14:55:17.075Z,99.90
2019-03-18T14:57:47.083Z,99.90
2019-03-18T15:00:18.830Z,99.90
2019-03-18T15:02:48.468Z,99.90
2019-03-18T15:05:18.119Z,99.90
2019-03-18T15:07:47.800Z,99.90
2019-03-18T15:10:17.547Z,99.90
2019-03-18T15:12:47.149Z,99.90
2019-03-18T15:15:17.050Z,99.90
2019-03-18T15:17:46.671Z,99.90
2019-03-18T15:20:16.330Z,99.90
2019-03-18T15:22:45.959Z,99.90
2019-03-18T15:25:18.147Z,99.90
2019-03-18T15:27:47.775Z,99.90
2019-03-18T15:30:18.786Z,99.90
2019-03-18T15:32:48.409Z,99.90
2019-03-18T15:35:18.210Z,99.90
2019-03-18T15:37:47.858Z,99.90
2019-03-18T15:40:18.010Z,99.90
2019-03-18T15:42:47.795Z,99.90
2019-03-18T15:45:17.872Z,99.90
2019-03-18T15:47:47.499Z,99.90
2019-03-18T15:50:17.714Z,99.90
2019-03-18T15:52:47.339Z,99.90
2019-03-18T15:55:16.980Z,99.90
2019-03-18T15:57:47.123Z,99.90
2019-03-18T16:00:17.974Z,99.90
2019-03-18T16:02:47.597Z,99.90
2019-03-18T16:05:17.247Z,99.90
2019-03-18T16:08:05.876Z,99.90
2019-03-18T16:10:35.516Z,99.90
2019-03-18T16:13:05.227Z,99.90
2019-03-18T16:15:35.023Z,99.90
2019-03-18T16:18:04.660Z,99.90
2019-03-18T16:20:34.390Z,99.90
2019-03-18T16:23:04.005Z,99.90
2019-03-18T16:25:33.647Z,99.90
2019-03-18T16:28:03.305Z,99.90
2019-03-18T16:30:32.935Z,99.90
2019-03-18T16:33:02.575Z,99.90
2019-03-18T16:35:32.215Z,99.90
2019-03-18T16:38:01.868Z,99.90
2019-03-18T16:40:31.548Z,99.90
2019-03-18T16:43:01.320Z,99.90
2019-03-18T16:45:31.109Z,99.90
2019-03-18T16:48:00.927Z,99.90
2019-03-18T16:50:30.598Z,99.90
2019-03-18T16:53:00.304Z,99.90
2019-03-18T16:55:30.027Z,99.90
2019-03-18T16:57:59.752Z,99.90
2019-03-18T17:00:29.806Z,99.90
2019-03-18T17:02:59.476Z,99.90
2019-03-18T17:05:29.135Z,99.90
2019-03-18T17:07:59.004Z,99.90
2019-03-18T17:10:29.068Z,99.90
2019-03-18T17:12:58.774Z,99.90
2019-03-18T17:15:28.440Z,99.90
2019-03-18T17:17:58.097Z,99.90
2019-03-18T17:20:27.703Z,99.90
2019-03-18T17:22:57.358Z,99.90
2019-03-18T17:25:27.074Z,99.90
2019-03-18T17:27:56.881Z,99.90
2019-03-18T17:30:26.953Z,99.90
2019-03-18T17:32:56.939Z,99.90
2019-03-18T17:35:28.643Z,99.90
2019-03-18T17:37:58.259Z,99.90
2019-03-18T17:40:27.900Z,99.90
2019-03-18T17:42:57.536Z,99.90
2019-03-18T17:45:27.511Z,99.90
2019-03-18T17:47:57.196Z,99.90
2019-03-18T17:50:26.872Z,99.90
2019-03-18T17:53:02.965Z,99.90
2019-03-18T17:55:30.259Z,99.90
2019-03-18T17:58:02.275Z,99.90
2019-03-18T18:00:44.380Z,99.90
2019-03-18T18:03:14.556Z,99.90
2019-03-18T18:05:44.430Z,99.90
2019-03-18T18:08:14.116Z,99.90
2019-03-18T18:10:44.078Z,99.90
2019-03-18T18:13:13.996Z,99.90
2019-03-18T18:15:45.312Z,99.90
2019-03-18T18:18:14.976Z,99.90
2019-03-18T18:20:44.659Z,99.90
2019-03-18T18:23:15.794Z,99.90
2019-03-18T18:25:45.417Z,99.90
2019-03-18T18:28:15.079Z,99.90
2019-03-18T18:30:44.733Z,99.90
2019-03-18T18:33:14.342Z,99.90
2019-03-18T18:35:44.014Z,99.90
2019-03-18T18:38:13.696Z,99.90
2019-03-18T18:40:43.329Z,99.90
2019-03-18T18:43:12.988Z,99.90
2019-03-18T18:45:46.113Z,99.90
2019-03-18T18:48:17.756Z,99.90
2019-03-18T18:50:47.480Z,99.90
2019-03-18T18:53:25.607Z,99.90
2019-03-18T18:55:48.360Z,99.90
2019-03-18T18:58:18.006Z,99.90
2019-03-18T19:00:47.968Z,99.90
2019-03-18T19:03:17.625Z,99.90
2019-03-18T19:05:47.635Z,99.90
2019-03-18T19:08:17.315Z,99.90
2019-03-18T19:10:46.895Z,99.90
2019-03-18T19:13:17.761Z,99.90
2019-03-18T19:15:47.706Z,99.90
2019-03-18T19:18:17.336Z,99.90
2019-03-18T19:20:46.975Z,99.90
2019-03-18T19:23:16.667Z,99.90
2019-03-18T19:25:46.363Z,99.90
2019-03-18T19:28:15.966Z,99.90
2019-03-18T19:30:45.580Z,99.90
2019-03-18T19:33:15.215Z,99.90
2019-03-18T19:35:44.873Z,99.90
2019-03-18T19:38:14.505Z,99.90
2019-03-18T19:40:44.177Z,99.90
2019-03-18T19:43:13.857Z,99.90
2019-03-18T19:45:43.543Z,99.90
2019-03-18T19:48:13.280Z,99.90
2019-03-18T19:50:42.927Z,99.90
2019-03-18T19:53:12.589Z,99.90
2019-03-18T19:55:42.365Z,99.90
2019-03-18T19:58:11.992Z,99.90
2019-03-18T20:00:41.742Z,99.90
2019-03-18T20:03:11.356Z,99.90
2019-03-18T20:05:40.983Z,99.90
2019-03-18T20:08:10.595Z,99.90
2019-03-18T20:10:40.258Z,99.90
2019-03-18T20:13:09.905Z,99.90
2019-03-18T20:15:39.551Z,99.90
2019-03-18T20:18:09.350Z,99.90
2019-03-18T20:20:38.974Z,99.90
2019-03-18T20:23:08.588Z,99.90
2019-03-18T20:25:38.222Z,99.90
2019-03-18T20:28:07.848Z,99.90
2019-03-18T20:30:37.522Z,99.90
2019-03-18T20:33:07.361Z,99.90
2019-03-18T20:35:37.045Z,99.90
2019-03-18T20:38:06.791Z,99.90
2019-03-18T20:40:36.463Z,99.90
2019-03-18T20:43:06.396Z,99.90
2019-03-18T20:45:36.056Z,99.90
2019-03-18T20:48:05.699Z,99.90
2019-03-18T20:50:35.323Z,99.90
2019-03-18T20:53:05.046Z,99.90
2019-03-18T20:55:34.697Z,99.90
2019-03-18T20:58:04.255Z,99.90
2019-03-18T21:00:34.017Z,99.90
2019-03-18T21:03:03.618Z,99.90
2019-03-18T21:05:33.244Z,99.90
2019-03-18T21:08:02.991Z,99.90
2019-03-18T21:10:32.656Z,99.90
2019-03-18T21:13:02.326Z,99.90
2019-03-18T21:15:31.997Z,99.90
2019-03-18T21:18:01.831Z,99.90
2019-03-18T21:20:31.426Z,99.90
2019-03-18T21:23:01.219Z,99.90
2019-03-18T21:25:30.872Z,99.90
2019-03-18T21:28:01.464Z,99.90
2019-03-18T21:30:32.398Z,99.90
2019-03-18T21:33:04.229Z,99.90
2019-03-18T21:35:38.038Z,99.90
2019-03-18T21:38:07.690Z,99.90
2019-03-18T21:40:37.291Z,99.90
2019-03-18T21:43:07.011Z,99.90
2019-03-18T21:45:36.677Z,99.90
2019-03-18T21:48:06.410Z,99.90
2019-03-18T21:50:36.167Z,99.90
2019-03-18T21:53:05.903Z,99.90
2019-03-18T21:55:35.533Z,99.90
2019-03-18T21:58:05.363Z,99.90
2019-03-18T22:00:34.951Z,99.90
2019-03-18T22:03:04.787Z,99.90
2019-03-18T22:05:34.565Z,99.90
2019-03-18T22:08:04.161Z,99.90
2019-03-18T22:10:33.818Z,99.90
2019-03-18T22:13:03.475Z,99.90
2019-03-18T22:15:33.247Z,99.90
2019-03-18T22:18:02.892Z,99.90
2019-03-18T22:20:32.512Z,99.90
2019-03-18T22:23:03.351Z,99.90
2019-03-18T22:25:34.710Z,99.90
2019-03-18T22:28:04.498Z,99.90
2019-03-18T22:30:34.119Z,99.90
2019-03-18T22:33:03.738Z,99.90
2019-03-18T22:35:33.382Z,99.90
2019-03-18T22:38:02.999Z,99.90
2019-03-18T22:40:32.689Z,99.90
2019-03-18T22:43:02.369Z,99.90
2019-03-18T22:45:31.983Z,99.90
2019-03-18T22:48:01.591Z,99.90
2019-03-18T22:50:31.237Z,99.90
2019-03-18T22:53:00.907Z,99.90
2019-03-18T22:55:30.531Z,99.90
2019-03-18T22:58:00.202Z,99.90
2019-03-18T23:00:52.896Z,99.90
2019-03-18T23:03:23.161Z,99.90
2019-03-18T23:05:53.060Z,99.90
2019-03-18T23:08:22.849Z,99.90
2019-03-18T23:10:52.635Z,99.90
2019-03-18T23:13:22.268Z,99.90
2019-03-18T23:15:51.908Z,99.90
2019-03-18T23:18:23.554Z,99.90
2019-03-18T23:20:53.280Z,99.90
2019-03-18T23:23:22.895Z,99.90
2019-03-18T23:25:52.576Z,99.90
2019-03-18T23:28:22.219Z,99.90
2019-03-18T23:30:52.048Z,99.90
2019-03-18T23:33:21.701Z,99.90
2019-03-18T23:35:51.308Z,99.90
2019-03-18T23:38:21.048Z,99.90
2019-03-18T23:40:50.767Z,99.90
2019-03-18T23:43:20.379Z,99.90
2019-03-18T23:45:49.991Z,99.90
2019-03-18T23:48:19.688Z,99.90
2019-03-18T23:50:49.399Z,99.90
2019-03-18T23:53:21.904Z,99.90
2019-03-18T23:55:51.645Z,99.90
2019-03-18T23:58:21.293Z,99.90
